sensor_id;sensor_type;location;lat;lon;timestamp;P1;durP1;ratioP1;P2;durP2;ratioP2
26082;SDS011;13848;49.018;12.078;2023-05-24T00:00:39;2.90;;;1.95;;
26082;SDS011;13848;49.018;12.078;2023-05-24T00:03:05;2.40;;;2.15;;
26082;SDS011;13848;49.018;12.078;2023-05-24T00:05:30;3.22;;;2.25;;
26082;SDS011;13848;49.018;12.078;2023-05-24T00:07:57;3.15;;;2.40;;
26082;SDS011;13848;49.018;12.078;2023-05-24T00:10:22;2.30;;;2.10;;
26082;SDS011;13848;49.018;12.078;2023-05-24T00:12:50;3.22;;;2.38;;
26082;SDS011;13848;49.018;12.078;2023-05-24T00:15:16;2.97;;;2.40;;
26082;SDS011;13848;49.018;12.078;2023-05-24T00:17:42;3.15;;;2.30;;
26082;SDS011;13848;49.018;12.078;2023-05-24T00:20:08;7.68;;;3.45;;
26082;SDS011;13848;49.018;12.078;2023-05-24T00:22:35;2.40;;;2.20;;
26082;SDS011;13848;49.018;12.078;2023-05-24T00:25:01;3.65;;;2.30;;
26082;SDS011;13848;49.018;12.078;2023-05-24T00:27:27;3.05;;;1.88;;
26082;SDS011;13848;49.018;12.078;2023-05-24T00:29:54;2.20;;;1.90;;
26082;SDS011;13848;49.018;12.078;2023-05-24T00:32:20;2.30;;;2.10;;
26082;SDS011;13848;49.018;12.078;2023-05-24T00:34:46;3.10;;;1.95;;
26082;SDS011;13848;49.018;12.078;2023-05-24T00:37:12;4.53;;;2.15;;
26082;SDS011;13848;49.018;12.078;2023-05-24T00:39:37;2.45;;;2.25;;
26082;SDS011;13848;49.018;12.078;2023-05-24T00:42:04;3.42;;;2.40;;
26082;SDS011;13848;49.018;12.078;2023-05-24T00:44:30;2.30;;;2.10;;
26082;SDS011;13848;49.018;12.078;2023-05-24T00:46:57;2.78;;;2.10;;
26082;SDS011;13848;49.018;12.078;2023-05-24T00:49:24;3.03;;;2.17;;
26082;SDS011;13848;49.018;12.078;2023-05-24T00:51:51;1.80;;;1.70;;
26082;SDS011;13848;49.018;12.078;2023-05-24T00:54:18;3.58;;;2.47;;
26082;SDS011;13848;49.018;12.078;2023-05-24T00:56:44;4.07;;;2.20;;
26082;SDS011;13848;49.018;12.078;2023-05-24T00:59:12;2.90;;;2.15;;
26082;SDS011;13848;49.018;12.078;2023-05-24T01:01:38;5.70;;;2.28;;
26082;SDS011;13848;49.018;12.078;2023-05-24T01:04:05;6.30;;;2.15;;
26082;SDS011;13848;49.018;12.078;2023-05-24T01:06:32;4.65;;;2.20;;
26082;SDS011;13848;49.018;12.078;2023-05-24T01:09:08;3.38;;;2.08;;
26082;SDS011;13848;49.018;12.078;2023-05-24T01:11:46;4.55;;;2.30;;
26082;SDS011;13848;49.018;12.078;2023-05-24T01:14:25;4.15;;;2.10;;
26082;SDS011;13848;49.018;12.078;2023-05-24T01:16:57;5.63;;;2.55;;
26082;SDS011;13848;49.018;12.078;2023-05-24T01:19:43;3.63;;;2.08;;
26082;SDS011;13848;49.018;12.078;2023-05-24T01:22:18;4.55;;;2.30;;
26082;SDS011;13848;49.018;12.078;2023-05-24T01:24:55;7.03;;;2.72;;
26082;SDS011;13848;49.018;12.078;2023-05-24T01:27:28;4.57;;;2.50;;
26082;SDS011;13848;49.018;12.078;2023-05-24T01:29:56;2.92;;;2.20;;
26082;SDS011;13848;49.018;12.078;2023-05-24T01:32:23;5.65;;;2.42;;
26082;SDS011;13848;49.018;12.078;2023-05-24T01:34:50;4.07;;;2.63;;
26082;SDS011;13848;49.018;12.078;2023-05-24T01:37:16;5.78;;;2.58;;
26082;SDS011;13848;49.018;12.078;2023-05-24T01:39:42;6.45;;;2.78;;
26082;SDS011;13848;49.018;12.078;2023-05-24T01:42:10;5.10;;;2.25;;
26082;SDS011;13848;49.018;12.078;2023-05-24T01:44:49;3.67;;;2.45;;
26082;SDS011;13848;49.018;12.078;2023-05-24T01:47:24;3.63;;;2.50;;
26082;SDS011;13848;49.018;12.078;2023-05-24T01:50:00;5.03;;;2.55;;
26082;SDS011;13848;49.018;12.078;2023-05-24T01:52:32;4.63;;;2.67;;
26082;SDS011;13848;49.018;12.078;2023-05-24T01:55:00;6.10;;;2.80;;
26082;SDS011;13848;49.018;12.078;2023-05-24T01:57:27;5.90;;;2.72;;
26082;SDS011;13848;49.018;12.078;2023-05-24T01:59:56;4.93;;;2.67;;
26082;SDS011;13848;49.018;12.078;2023-05-24T02:02:25;4.93;;;2.65;;
26082;SDS011;13848;49.018;12.078;2023-05-24T02:04:51;5.43;;;2.90;;
26082;SDS011;13848;49.018;12.078;2023-05-24T02:07:16;7.47;;;2.80;;
26082;SDS011;13848;49.018;12.078;2023-05-24T02:09:42;7.03;;;2.72;;
26082;SDS011;13848;49.018;12.078;2023-05-24T02:12:09;5.50;;;2.63;;
26082;SDS011;13848;49.018;12.078;2023-05-24T02:14:35;3.75;;;2.50;;
26082;SDS011;13848;49.018;12.078;2023-05-24T02:17:03;6.47;;;3.00;;
26082;SDS011;13848;49.018;12.078;2023-05-24T02:19:29;6.65;;;2.80;;
26082;SDS011;13848;49.018;12.078;2023-05-24T02:21:55;5.53;;;3.10;;
26082;SDS011;13848;49.018;12.078;2023-05-24T02:24:21;4.90;;;2.80;;
26082;SDS011;13848;49.018;12.078;2023-05-24T02:26:47;5.63;;;3.10;;
26082;SDS011;13848;49.018;12.078;2023-05-24T02:29:13;7.93;;;3.13;;
26082;SDS011;13848;49.018;12.078;2023-05-24T02:31:38;4.43;;;2.90;;
26082;SDS011;13848;49.018;12.078;2023-05-24T02:34:06;8.07;;;3.10;;
26082;SDS011;13848;49.018;12.078;2023-05-24T02:36:32;6.07;;;3.35;;
26082;SDS011;13848;49.018;12.078;2023-05-24T02:38:58;8.48;;;3.15;;
26082;SDS011;13848;49.018;12.078;2023-05-24T02:41:23;10.52;;;3.55;;
26082;SDS011;13848;49.018;12.078;2023-05-24T02:43:49;7.80;;;3.33;;
26082;SDS011;13848;49.018;12.078;2023-05-24T02:46:15;10.25;;;3.45;;
26082;SDS011;13848;49.018;12.078;2023-05-24T02:48:41;6.03;;;3.10;;
26082;SDS011;13848;49.018;12.078;2023-05-24T02:51:08;7.32;;;3.28;;
26082;SDS011;13848;49.018;12.078;2023-05-24T02:53:34;6.40;;;3.03;;
26082;SDS011;13848;49.018;12.078;2023-05-24T02:56:00;8.80;;;3.70;;
26082;SDS011;13848;49.018;12.078;2023-05-24T02:58:26;7.47;;;3.00;;
26082;SDS011;13848;49.018;12.078;2023-05-24T03:00:52;8.20;;;3.15;;
26082;SDS011;13848;49.018;12.078;2023-05-24T03:03:18;10.40;;;3.28;;
26082;SDS011;13848;49.018;12.078;2023-05-24T03:05:44;8.13;;;3.60;;
26082;SDS011;13848;49.018;12.078;2023-05-24T03:08:11;10.27;;;3.85;;
26082;SDS011;13848;49.018;12.078;2023-05-24T03:10:37;8.25;;;3.38;;
26082;SDS011;13848;49.018;12.078;2023-05-24T03:13:03;8.40;;;3.60;;
26082;SDS011;13848;49.018;12.078;2023-05-24T03:15:29;11.88;;;3.42;;
26082;SDS011;13848;49.018;12.078;2023-05-24T03:17:55;7.53;;;3.33;;
26082;SDS011;13848;49.018;12.078;2023-05-24T03:20:21;9.43;;;3.40;;
26082;SDS011;13848;49.018;12.078;2023-05-24T03:22:47;6.15;;;3.08;;
26082;SDS011;13848;49.018;12.078;2023-05-24T03:25:14;6.53;;;2.90;;
26082;SDS011;13848;49.018;12.078;2023-05-24T03:27:40;12.00;;;4.00;;
26082;SDS011;13848;49.018;12.078;2023-05-24T03:30:07;8.63;;;3.30;;
26082;SDS011;13848;49.018;12.078;2023-05-24T03:32:33;7.50;;;2.95;;
26082;SDS011;13848;49.018;12.078;2023-05-24T03:34:59;8.80;;;3.67;;
26082;SDS011;13848;49.018;12.078;2023-05-24T03:37:25;8.35;;;3.65;;
26082;SDS011;13848;49.018;12.078;2023-05-24T03:39:51;6.68;;;3.30;;
26082;SDS011;13848;49.018;12.078;2023-05-24T03:42:18;7.07;;;3.58;;
26082;SDS011;13848;49.018;12.078;2023-05-24T03:44:44;5.88;;;3.47;;
26082;SDS011;13848;49.018;12.078;2023-05-24T03:47:10;8.38;;;3.85;;
26082;SDS011;13848;49.018;12.078;2023-05-24T03:49:36;10.88;;;4.15;;
26082;SDS011;13848;49.018;12.078;2023-05-24T03:52:02;6.57;;;3.47;;
26082;SDS011;13848;49.018;12.078;2023-05-24T03:54:28;10.18;;;3.60;;
26082;SDS011;13848;49.018;12.078;2023-05-24T03:56:54;11.20;;;3.60;;
26082;SDS011;13848;49.018;12.078;2023-05-24T03:59:21;8.15;;;3.83;;
26082;SDS011;13848;49.018;12.078;2023-05-24T04:01:47;8.57;;;3.60;;
26082;SDS011;13848;49.018;12.078;2023-05-24T04:04:13;10.30;;;3.45;;
26082;SDS011;13848;49.018;12.078;2023-05-24T04:06:39;9.68;;;3.33;;
26082;SDS011;13848;49.018;12.078;2023-05-24T04:09:05;8.07;;;3.50;;
26082;SDS011;13848;49.018;12.078;2023-05-24T04:11:31;11.60;;;3.90;;
26082;SDS011;13848;49.018;12.078;2023-05-24T04:13:58;10.60;;;3.85;;
26082;SDS011;13848;49.018;12.078;2023-05-24T04:16:25;11.73;;;3.58;;
26082;SDS011;13848;49.018;12.078;2023-05-24T04:18:51;8.75;;;3.58;;
26082;SDS011;13848;49.018;12.078;2023-05-24T04:21:18;8.05;;;3.60;;
26082;SDS011;13848;49.018;12.078;2023-05-24T04:23:43;8.02;;;3.55;;
26082;SDS011;13848;49.018;12.078;2023-05-24T04:26:09;8.60;;;3.35;;
26082;SDS011;13848;49.018;12.078;2023-05-24T04:28:35;11.43;;;3.78;;
26082;SDS011;13848;49.018;12.078;2023-05-24T04:31:01;11.43;;;3.88;;
26082;SDS011;13848;49.018;12.078;2023-05-24T04:33:29;10.07;;;4.32;;
26082;SDS011;13848;49.018;12.078;2023-05-24T04:35:55;9.68;;;4.45;;
26082;SDS011;13848;49.018;12.078;2023-05-24T04:38:21;8.32;;;3.92;;
26082;SDS011;13848;49.018;12.078;2023-05-24T04:40:46;12.98;;;3.85;;
26082;SDS011;13848;49.018;12.078;2023-05-24T04:43:12;7.35;;;3.22;;
26082;SDS011;13848;49.018;12.078;2023-05-24T04:45:38;7.47;;;3.47;;
26082;SDS011;13848;49.018;12.078;2023-05-24T04:48:04;9.77;;;3.70;;
26082;SDS011;13848;49.018;12.078;2023-05-24T04:50:32;9.68;;;3.55;;
26082;SDS011;13848;49.018;12.078;2023-05-24T04:52:58;8.43;;;3.70;;
26082;SDS011;13848;49.018;12.078;2023-05-24T04:55:24;11.13;;;3.75;;
26082;SDS011;13848;49.018;12.078;2023-05-24T04:57:50;9.70;;;4.05;;
26082;SDS011;13848;49.018;12.078;2023-05-24T05:00:16;10.63;;;4.90;;
26082;SDS011;13848;49.018;12.078;2023-05-24T05:02:42;12.23;;;3.83;;
26082;SDS011;13848;49.018;12.078;2023-05-24T05:05:08;13.13;;;6.35;;
26082;SDS011;13848;49.018;12.078;2023-05-24T05:07:35;8.85;;;3.72;;
26082;SDS011;13848;49.018;12.078;2023-05-24T05:10:01;9.20;;;3.90;;
26082;SDS011;13848;49.018;12.078;2023-05-24T05:12:27;7.95;;;4.20;;
26082;SDS011;13848;49.018;12.078;2023-05-24T05:14:53;10.75;;;4.03;;
26082;SDS011;13848;49.018;12.078;2023-05-24T05:17:19;9.25;;;4.05;;
26082;SDS011;13848;49.018;12.078;2023-05-24T05:19:45;9.85;;;3.80;;
26082;SDS011;13848;49.018;12.078;2023-05-24T05:22:11;8.48;;;3.95;;
26082;SDS011;13848;49.018;12.078;2023-05-24T05:24:38;12.73;;;4.10;;
26082;SDS011;13848;49.018;12.078;2023-05-24T05:27:04;9.48;;;4.32;;
26082;SDS011;13848;49.018;12.078;2023-05-24T05:29:30;18.73;;;8.00;;
26082;SDS011;13848;49.018;12.078;2023-05-24T05:31:56;10.00;;;4.25;;
26082;SDS011;13848;49.018;12.078;2023-05-24T05:34:22;12.10;;;4.32;;
26082;SDS011;13848;49.018;12.078;2023-05-24T05:36:48;8.70;;;4.13;;
26082;SDS011;13848;49.018;12.078;2023-05-24T05:39:14;18.55;;;6.53;;
26082;SDS011;13848;49.018;12.078;2023-05-24T05:41:41;11.73;;;5.22;;
26082;SDS011;13848;49.018;12.078;2023-05-24T05:44:07;9.27;;;4.75;;
26082;SDS011;13848;49.018;12.078;2023-05-24T05:46:33;10.43;;;3.97;;
26082;SDS011;13848;49.018;12.078;2023-05-24T05:48:59;8.43;;;4.05;;
26082;SDS011;13848;49.018;12.078;2023-05-24T05:51:25;9.07;;;4.00;;
26082;SDS011;13848;49.018;12.078;2023-05-24T05:53:51;8.95;;;4.18;;
26082;SDS011;13848;49.018;12.078;2023-05-24T05:56:17;9.82;;;4.80;;
26082;SDS011;13848;49.018;12.078;2023-05-24T05:58:44;9.13;;;4.20;;
26082;SDS011;13848;49.018;12.078;2023-05-24T06:01:10;10.38;;;4.20;;
26082;SDS011;13848;49.018;12.078;2023-05-24T06:03:36;8.35;;;3.80;;
26082;SDS011;13848;49.018;12.078;2023-05-24T06:06:02;7.97;;;4.05;;
26082;SDS011;13848;49.018;12.078;2023-05-24T06:08:28;7.82;;;4.18;;
26082;SDS011;13848;49.018;12.078;2023-05-24T06:10:55;11.02;;;4.25;;
26082;SDS011;13848;49.018;12.078;2023-05-24T06:13:21;14.68;;;7.00;;
26082;SDS011;13848;49.018;12.078;2023-05-24T06:15:48;16.95;;;7.53;;
26082;SDS011;13848;49.018;12.078;2023-05-24T06:18:14;13.80;;;5.28;;
26082;SDS011;13848;49.018;12.078;2023-05-24T06:20:40;16.70;;;6.45;;
26082;SDS011;13848;49.018;12.078;2023-05-24T06:23:06;9.68;;;4.72;;
26082;SDS011;13848;49.018;12.078;2023-05-24T06:25:32;9.40;;;4.63;;
26082;SDS011;13848;49.018;12.078;2023-05-24T06:27:58;19.45;;;8.73;;
26082;SDS011;13848;49.018;12.078;2023-05-24T06:30:24;14.73;;;6.10;;
26082;SDS011;13848;49.018;12.078;2023-05-24T06:32:51;8.10;;;4.65;;
26082;SDS011;13848;49.018;12.078;2023-05-24T06:35:17;13.05;;;4.75;;
26082;SDS011;13848;49.018;12.078;2023-05-24T06:37:43;12.77;;;5.35;;
26082;SDS011;13848;49.018;12.078;2023-05-24T06:40:09;12.13;;;5.93;;
26082;SDS011;13848;49.018;12.078;2023-05-24T06:42:36;14.43;;;6.35;;
26082;SDS011;13848;49.018;12.078;2023-05-24T06:45:02;13.93;;;5.65;;
26082;SDS011;13848;49.018;12.078;2023-05-24T06:47:29;19.90;;;5.78;;
26082;SDS011;13848;49.018;12.078;2023-05-24T06:49:56;13.77;;;4.53;;
26082;SDS011;13848;49.018;12.078;2023-05-24T06:52:22;10.77;;;4.43;;
26082;SDS011;13848;49.018;12.078;2023-05-24T06:54:48;14.55;;;4.38;;
26082;SDS011;13848;49.018;12.078;2023-05-24T06:57:14;9.80;;;4.32;;
26082;SDS011;13848;49.018;12.078;2023-05-24T06:59:40;9.40;;;3.78;;
26082;SDS011;13848;49.018;12.078;2023-05-24T07:02:06;16.80;;;4.55;;
26082;SDS011;13848;49.018;12.078;2023-05-24T07:04:32;13.57;;;4.50;;
26082;SDS011;13848;49.018;12.078;2023-05-24T07:06:59;13.48;;;4.70;;
26082;SDS011;13848;49.018;12.078;2023-05-24T07:09:25;12.90;;;4.40;;
26082;SDS011;13848;49.018;12.078;2023-05-24T07:11:51;14.40;;;4.30;;
26082;SDS011;13848;49.018;12.078;2023-05-24T07:14:17;13.13;;;3.78;;
26082;SDS011;13848;49.018;12.078;2023-05-24T07:16:43;10.80;;;4.10;;
26082;SDS011;13848;49.018;12.078;2023-05-24T07:19:09;9.65;;;3.72;;
26082;SDS011;13848;49.018;12.078;2023-05-24T07:21:35;10.45;;;3.88;;
26082;SDS011;13848;49.018;12.078;2023-05-24T07:24:02;12.68;;;3.72;;
26082;SDS011;13848;49.018;12.078;2023-05-24T07:26:29;11.95;;;3.83;;
26082;SDS011;13848;49.018;12.078;2023-05-24T07:28:54;8.70;;;3.33;;
26082;SDS011;13848;49.018;12.078;2023-05-24T07:31:20;13.95;;;3.70;;
26082;SDS011;13848;49.018;12.078;2023-05-24T07:33:46;13.73;;;4.00;;
26082;SDS011;13848;49.018;12.078;2023-05-24T07:36:12;10.00;;;4.75;;
26082;SDS011;13848;49.018;12.078;2023-05-24T07:38:39;11.02;;;4.43;;
26082;SDS011;13848;49.018;12.078;2023-05-24T07:41:06;11.05;;;3.90;;
26082;SDS011;13848;49.018;12.078;2023-05-24T07:43:32;10.20;;;3.65;;
26082;SDS011;13848;49.018;12.078;2023-05-24T07:45:58;10.98;;;3.83;;
26082;SDS011;13848;49.018;12.078;2023-05-24T07:48:24;9.07;;;3.95;;
26082;SDS011;13848;49.018;12.078;2023-05-24T07:50:50;11.75;;;3.75;;
26082;SDS011;13848;49.018;12.078;2023-05-24T07:53:16;15.98;;;4.30;;
26082;SDS011;13848;49.018;12.078;2023-05-24T07:55:42;11.23;;;3.60;;
26082;SDS011;13848;49.018;12.078;2023-05-24T07:58:10;13.60;;;3.60;;
26082;SDS011;13848;49.018;12.078;2023-05-24T08:00:36;13.15;;;3.88;;
26082;SDS011;13848;49.018;12.078;2023-05-24T08:03:02;8.93;;;3.55;;
26082;SDS011;13848;49.018;12.078;2023-05-24T08:05:28;9.50;;;3.58;;
26082;SDS011;13848;49.018;12.078;2023-05-24T08:07:54;7.35;;;3.35;;
26082;SDS011;13848;49.018;12.078;2023-05-24T08:10:20;10.88;;;4.03;;
26082;SDS011;13848;49.018;12.078;2023-05-24T08:12:46;11.65;;;3.95;;
26082;SDS011;13848;49.018;12.078;2023-05-24T08:15:13;12.85;;;6.57;;
26082;SDS011;13848;49.018;12.078;2023-05-24T08:17:39;12.50;;;3.90;;
26082;SDS011;13848;49.018;12.078;2023-05-24T08:20:05;10.52;;;3.60;;
26082;SDS011;13848;49.018;12.078;2023-05-24T08:22:32;13.40;;;4.57;;
26082;SDS011;13848;49.018;12.078;2023-05-24T08:24:58;12.05;;;4.15;;
26082;SDS011;13848;49.018;12.078;2023-05-24T08:27:24;10.50;;;4.35;;
26082;SDS011;13848;49.018;12.078;2023-05-24T08:29:50;9.68;;;4.38;;
26082;SDS011;13848;49.018;12.078;2023-05-24T08:32:17;12.45;;;3.85;;
26082;SDS011;13848;49.018;12.078;2023-05-24T08:34:43;11.55;;;4.15;;
26082;SDS011;13848;49.018;12.078;2023-05-24T08:37:09;13.80;;;6.35;;
26082;SDS011;13848;49.018;12.078;2023-05-24T08:39:35;16.48;;;7.57;;
26082;SDS011;13848;49.018;12.078;2023-05-24T08:42:01;12.32;;;4.65;;
26082;SDS011;13848;49.018;12.078;2023-05-24T08:44:29;12.60;;;4.07;;
26082;SDS011;13848;49.018;12.078;2023-05-24T08:46:56;12.77;;;3.88;;
26082;SDS011;13848;49.018;12.078;2023-05-24T08:49:24;9.13;;;3.83;;
26082;SDS011;13848;49.018;12.078;2023-05-24T08:51:50;9.40;;;4.00;;
26082;SDS011;13848;49.018;12.078;2023-05-24T08:54:17;9.45;;;4.20;;
26082;SDS011;13848;49.018;12.078;2023-05-24T08:56:43;9.10;;;4.00;;
26082;SDS011;13848;49.018;12.078;2023-05-24T08:59:10;17.00;;;4.20;;
26082;SDS011;13848;49.018;12.078;2023-05-24T09:01:36;13.40;;;4.32;;
26082;SDS011;13848;49.018;12.078;2023-05-24T09:04:04;7.88;;;3.90;;
26082;SDS011;13848;49.018;12.078;2023-05-24T09:06:32;9.55;;;3.85;;
26082;SDS011;13848;49.018;12.078;2023-05-24T09:08:58;8.35;;;3.95;;
26082;SDS011;13848;49.018;12.078;2023-05-24T09:11:27;14.35;;;4.18;;
26082;SDS011;13848;49.018;12.078;2023-05-24T09:13:55;9.25;;;4.13;;
26082;SDS011;13848;49.018;12.078;2023-05-24T09:16:22;7.93;;;3.70;;
26082;SDS011;13848;49.018;12.078;2023-05-24T09:18:48;10.63;;;4.05;;
26082;SDS011;13848;49.018;12.078;2023-05-24T09:21:14;11.93;;;4.53;;
26082;SDS011;13848;49.018;12.078;2023-05-24T09:23:41;10.77;;;4.38;;
26082;SDS011;13848;49.018;12.078;2023-05-24T09:26:08;9.68;;;4.13;;
26082;SDS011;13848;49.018;12.078;2023-05-24T09:28:35;10.00;;;4.22;;
26082;SDS011;13848;49.018;12.078;2023-05-24T09:31:02;10.85;;;4.35;;
26082;SDS011;13848;49.018;12.078;2023-05-24T09:33:28;10.93;;;4.72;;
26082;SDS011;13848;49.018;12.078;2023-05-24T09:35:55;9.60;;;4.60;;
26082;SDS011;13848;49.018;12.078;2023-05-24T09:38:22;14.02;;;4.45;;
26082;SDS011;13848;49.018;12.078;2023-05-24T09:40:57;8.98;;;4.10;;
26082;SDS011;13848;49.018;12.078;2023-05-24T09:43:23;13.00;;;4.40;;
26082;SDS011;13848;49.018;12.078;2023-05-24T09:45:49;10.70;;;4.60;;
26082;SDS011;13848;49.018;12.078;2023-05-24T09:48:15;10.23;;;3.95;;
26082;SDS011;13848;49.018;12.078;2023-05-24T09:50:41;13.18;;;4.50;;
26082;SDS011;13848;49.018;12.078;2023-05-24T09:53:08;9.77;;;4.95;;
26082;SDS011;13848;49.018;12.078;2023-05-24T09:55:34;11.32;;;4.57;;
26082;SDS011;13848;49.018;12.078;2023-05-24T09:58:03;8.73;;;4.07;;
26082;SDS011;13848;49.018;12.078;2023-05-24T10:00:32;12.50;;;3.88;;
26082;SDS011;13848;49.018;12.078;2023-05-24T10:02:59;14.52;;;6.65;;
26082;SDS011;13848;49.018;12.078;2023-05-24T10:05:26;14.45;;;7.32;;
26082;SDS011;13848;49.018;12.078;2023-05-24T10:07:52;9.73;;;4.22;;
26082;SDS011;13848;49.018;12.078;2023-05-24T10:10:18;7.32;;;3.63;;
26082;SDS011;13848;49.018;12.078;2023-05-24T10:12:44;11.40;;;4.00;;
26082;SDS011;13848;49.018;12.078;2023-05-24T10:15:12;7.90;;;4.00;;
26082;SDS011;13848;49.018;12.078;2023-05-24T10:17:38;5.88;;;3.50;;
26082;SDS011;13848;49.018;12.078;2023-05-24T10:20:05;9.13;;;4.05;;
26082;SDS011;13848;49.018;12.078;2023-05-24T10:22:32;11.52;;;5.13;;
26082;SDS011;13848;49.018;12.078;2023-05-24T10:25:04;8.02;;;4.05;;
26082;SDS011;13848;49.018;12.078;2023-05-24T10:27:32;12.65;;;3.70;;
26082;SDS011;13848;49.018;12.078;2023-05-24T10:30:00;7.95;;;3.60;;
26082;SDS011;13848;49.018;12.078;2023-05-24T10:32:34;7.75;;;3.47;;
26082;SDS011;13848;49.018;12.078;2023-05-24T10:35:04;7.53;;;3.70;;
26082;SDS011;13848;49.018;12.078;2023-05-24T10:37:31;7.25;;;3.75;;
26082;SDS011;13848;49.018;12.078;2023-05-24T10:39:57;9.05;;;3.95;;
26082;SDS011;13848;49.018;12.078;2023-05-24T10:42:24;10.68;;;4.07;;
26082;SDS011;13848;49.018;12.078;2023-05-24T10:44:50;8.48;;;3.50;;
26082;SDS011;13848;49.018;12.078;2023-05-24T10:47:16;10.00;;;3.80;;
26082;SDS011;13848;49.018;12.078;2023-05-24T10:49:49;18.23;;;4.03;;
26082;SDS011;13848;49.018;12.078;2023-05-24T10:52:17;11.52;;;3.60;;
26082;SDS011;13848;49.018;12.078;2023-05-24T10:57:34;5.45;;;3.20;;
26082;SDS011;13848;49.018;12.078;2023-05-24T11:03:00;6.40;;;3.40;;
26082;SDS011;13848;49.018;12.078;2023-05-24T11:05:32;11.88;;;3.80;;
26082;SDS011;13848;49.018;12.078;2023-05-24T11:07:59;7.68;;;3.47;;
26082;SDS011;13848;49.018;12.078;2023-05-24T11:10:29;8.32;;;3.80;;
26082;SDS011;13848;49.018;12.078;2023-05-24T11:12:56;8.50;;;3.72;;
26082;SDS011;13848;49.018;12.078;2023-05-24T11:15:22;8.20;;;3.20;;
26082;SDS011;13848;49.018;12.078;2023-05-24T11:20:41;7.15;;;3.53;;
26082;SDS011;13848;49.018;12.078;2023-05-24T11:23:08;6.80;;;3.33;;
26082;SDS011;13848;49.018;12.078;2023-05-24T11:25:34;10.95;;;3.10;;
26082;SDS011;13848;49.018;12.078;2023-05-24T11:28:00;12.13;;;2.65;;
26082;SDS011;13848;49.018;12.078;2023-05-24T11:30:27;6.00;;;3.03;;
26082;SDS011;13848;49.018;12.078;2023-05-24T11:32:53;8.93;;;3.40;;
26082;SDS011;13848;49.018;12.078;2023-05-24T11:35:20;5.82;;;3.50;;
26082;SDS011;13848;49.018;12.078;2023-05-24T11:37:47;9.35;;;4.00;;
26082;SDS011;13848;49.018;12.078;2023-05-24T11:40:13;6.90;;;2.95;;
26082;SDS011;13848;49.018;12.078;2023-05-24T11:42:39;9.07;;;3.00;;
26082;SDS011;13848;49.018;12.078;2023-05-24T11:45:06;6.85;;;3.17;;
26082;SDS011;13848;49.018;12.078;2023-05-24T11:47:33;6.38;;;3.00;;
26082;SDS011;13848;49.018;12.078;2023-05-24T11:50:00;5.53;;;2.88;;
26082;SDS011;13848;49.018;12.078;2023-05-24T11:52:26;7.25;;;2.95;;
26082;SDS011;13848;49.018;12.078;2023-05-24T11:54:53;6.82;;;3.03;;
26082;SDS011;13848;49.018;12.078;2023-05-24T11:57:21;10.25;;;2.90;;
26082;SDS011;13848;49.018;12.078;2023-05-24T11:59:52;8.88;;;2.67;;
26082;SDS011;13848;49.018;12.078;2023-05-24T12:02:18;7.22;;;3.35;;
26082;SDS011;13848;49.018;12.078;2023-05-24T12:04:44;4.47;;;2.60;;
26082;SDS011;13848;49.018;12.078;2023-05-24T12:07:10;13.18;;;4.10;;
26082;SDS011;13848;49.018;12.078;2023-05-24T12:09:36;7.65;;;4.00;;
26082;SDS011;13848;49.018;12.078;2023-05-24T12:12:04;6.05;;;3.25;;
26082;SDS011;13848;49.018;12.078;2023-05-24T12:14:31;7.35;;;2.50;;
26082;SDS011;13848;49.018;12.078;2023-05-24T12:16:58;5.68;;;3.00;;
26082;SDS011;13848;49.018;12.078;2023-05-24T12:19:25;6.07;;;2.60;;
26082;SDS011;13848;49.018;12.078;2023-05-24T12:21:55;5.72;;;2.65;;
26082;SDS011;13848;49.018;12.078;2023-05-24T12:24:22;6.82;;;2.85;;
26082;SDS011;13848;49.018;12.078;2023-05-24T12:26:49;5.18;;;2.60;;
26082;SDS011;13848;49.018;12.078;2023-05-24T12:29:18;6.43;;;2.72;;
26082;SDS011;13848;49.018;12.078;2023-05-24T12:31:46;5.82;;;2.50;;
26082;SDS011;13848;49.018;12.078;2023-05-24T12:34:13;5.30;;;2.40;;
26082;SDS011;13848;49.018;12.078;2023-05-24T12:36:40;11.98;;;2.60;;
26082;SDS011;13848;49.018;12.078;2023-05-24T12:39:16;9.32;;;2.70;;
26082;SDS011;13848;49.018;12.078;2023-05-24T12:41:43;8.57;;;2.75;;
26082;SDS011;13848;49.018;12.078;2023-05-24T12:44:09;6.32;;;2.47;;
26082;SDS011;13848;49.018;12.078;2023-05-24T12:46:37;6.57;;;2.75;;
26082;SDS011;13848;49.018;12.078;2023-05-24T12:49:03;7.10;;;3.00;;
26082;SDS011;13848;49.018;12.078;2023-05-24T12:51:29;4.93;;;2.67;;
26082;SDS011;13848;49.018;12.078;2023-05-24T12:53:55;9.07;;;3.17;;
26082;SDS011;13848;49.018;12.078;2023-05-24T12:56:21;7.32;;;2.58;;
26082;SDS011;13848;49.018;12.078;2023-05-24T12:58:47;6.50;;;3.20;;
26082;SDS011;13848;49.018;12.078;2023-05-24T13:01:13;7.28;;;2.80;;
26082;SDS011;13848;49.018;12.078;2023-05-24T13:03:40;8.00;;;3.28;;
26082;SDS011;13848;49.018;12.078;2023-05-24T13:06:06;6.57;;;2.83;;
26082;SDS011;13848;49.018;12.078;2023-05-24T13:08:32;11.30;;;3.05;;
26082;SDS011;13848;49.018;12.078;2023-05-24T13:10:58;7.00;;;2.65;;
26082;SDS011;13848;49.018;12.078;2023-05-24T13:13:24;6.50;;;2.95;;
26082;SDS011;13848;49.018;12.078;2023-05-24T13:15:50;5.13;;;2.70;;
26082;SDS011;13848;49.018;12.078;2023-05-24T13:18:16;9.90;;;3.15;;
26082;SDS011;13848;49.018;12.078;2023-05-24T13:20:44;6.78;;;2.63;;
26082;SDS011;13848;49.018;12.078;2023-05-24T13:23:10;6.65;;;2.75;;
26082;SDS011;13848;49.018;12.078;2023-05-24T13:25:36;5.78;;;2.50;;
26082;SDS011;13848;49.018;12.078;2023-05-24T13:28:01;7.60;;;2.75;;
26082;SDS011;13848;49.018;12.078;2023-05-24T13:30:27;7.05;;;2.53;;
26082;SDS011;13848;49.018;12.078;2023-05-24T13:32:53;7.28;;;2.25;;
26082;SDS011;13848;49.018;12.078;2023-05-24T13:35:20;7.85;;;2.40;;
26082;SDS011;13848;49.018;12.078;2023-05-24T13:37:47;6.07;;;2.30;;
26082;SDS011;13848;49.018;12.078;2023-05-24T13:40:13;4.80;;;2.83;;
26082;SDS011;13848;49.018;12.078;2023-05-24T13:42:39;12.75;;;2.67;;
26082;SDS011;13848;49.018;12.078;2023-05-24T13:45:05;5.47;;;2.40;;
26082;SDS011;13848;49.018;12.078;2023-05-24T13:47:32;5.00;;;2.13;;
26082;SDS011;13848;49.018;12.078;2023-05-24T13:49:58;6.20;;;2.38;;
26082;SDS011;13848;49.018;12.078;2023-05-24T13:52:24;6.32;;;2.60;;
26082;SDS011;13848;49.018;12.078;2023-05-24T13:54:51;7.82;;;2.40;;
26082;SDS011;13848;49.018;12.078;2023-05-24T13:57:17;5.85;;;2.40;;
26082;SDS011;13848;49.018;12.078;2023-05-24T13:59:43;6.05;;;2.53;;
26082;SDS011;13848;49.018;12.078;2023-05-24T14:02:09;7.97;;;2.75;;
26082;SDS011;13848;49.018;12.078;2023-05-24T14:04:35;5.30;;;2.40;;
26082;SDS011;13848;49.018;12.078;2023-05-24T14:07:01;7.28;;;2.97;;
26082;SDS011;13848;49.018;12.078;2023-05-24T14:09:27;5.93;;;2.35;;
26082;SDS011;13848;49.018;12.078;2023-05-24T14:11:54;5.10;;;2.60;;
26082;SDS011;13848;49.018;12.078;2023-05-24T14:14:20;10.30;;;2.63;;
26082;SDS011;13848;49.018;12.078;2023-05-24T14:16:46;8.93;;;2.75;;
26082;SDS011;13848;49.018;12.078;2023-05-24T14:19:12;5.60;;;2.78;;
26082;SDS011;13848;49.018;12.078;2023-05-24T14:21:38;15.65;;;5.93;;
26082;SDS011;13848;49.018;12.078;2023-05-24T14:24:04;13.10;;;6.75;;
26082;SDS011;13848;49.018;12.078;2023-05-24T14:26:30;7.72;;;3.05;;
26082;SDS011;13848;49.018;12.078;2023-05-24T14:28:57;8.00;;;3.80;;
26082;SDS011;13848;49.018;12.078;2023-05-24T14:31:23;10.02;;;3.42;;
26082;SDS011;13848;49.018;12.078;2023-05-24T14:33:49;8.18;;;2.92;;
26082;SDS011;13848;49.018;12.078;2023-05-24T14:36:15;6.65;;;2.70;;